sensor_id;sensor_type;location;lat;lon;timestamp;pressure;altitude;pressure_sealevel;temperature;humidity
64616;BME280;51027;42.162;24.754;2022-08-21T00:02:19;99055.16;;;20.69;100.00
64616;BME280;51027;42.162;24.754;2022-08-21T00:04:45;99051.34;;;20.62;100.00
64616;BME280;51027;42.162;24.754;2022-08-21T00:07:11;99083.91;;;20.67;100.00
64616;BME280;51027;42.162;24.754;2022-08-21T00:09:37;99091.22;;;20.65;100.00
64616;BME280;51027;42.162;24.754;2022-08-21T00:12:04;99091.94;;;20.77;100.00
64616;BME280;51027;42.162;24.754;2022-08-21T00:14:30;99080.38;;;20.77;100.00
64616;BME280;51027;42.162;24.754;2022-08-21T00:16:55;99074.34;;;20.84;100.00
64616;BME280;51027;42.162;24.754;2022-08-21T00:19:21;99031.34;;;20.57;100.00
64616;BME280;51027;42.162;24.754;2022-08-21T00:21:51;99069.09;;;20.92;100.00
64616;BME280;51027;42.162;24.754;2022-08-21T00:24:18;99069.53;;;20.88;100.00
64616;BME280;51027;42.162;24.754;2022-08-21T00:26:44;99072.75;;;20.72;100.00
64616;BME280;51027;42.162;24.754;2022-08-21T00:29:10;99069.53;;;20.78;100.00
64616;BME280;51027;42.162;24.754;2022-08-21T00:31:36;99055.31;;;20.78;100.00
64616;BME280;51027;42.162;24.754;2022-08-21T00:34:03;99054.88;;;20.73;100.00
64616;BME280;51027;42.162;24.754;2022-08-21T00:36:29;99061.22;;;20.81;100.00
64616;BME280;51027;42.162;24.754;2022-08-21T00:38:55;99068.56;;;20.89;100.00
64616;BME280;51027;42.162;24.754;2022-08-21T00:41:24;99070.53;;;20.87;100.00
64616;BME280;51027;42.162;24.754;2022-08-21T00:43:49;99057.28;;;20.85;100.00
64616;BME280;51027;42.162;24.754;2022-08-21T00:46:17;99045.72;;;20.94;100.00
64616;BME280;51027;42.162;24.754;2022-08-21T00:48:42;99041.19;;;21.05;100.00
64616;BME280;51027;42.162;24.754;2022-08-21T00:51:14;99039.66;;;21.02;100.00
64616;BME280;51027;42.162;24.754;2022-08-21T00:53:43;99036.44;;;20.89;100.00
64616;BME280;51027;42.162;24.754;2022-08-21T00:56:11;99051.06;;;20.94;100.00
64616;BME280;51027;42.162;24.754;2022-08-21T00:58:39;99048.81;;;20.90;100.00
64616;BME280;51027;42.162;24.754;2022-08-21T01:01:08;99038.66;;;20.93;100.00
64616;BME280;51027;42.162;24.754;2022-08-21T01:03:37;99052.06;;;20.93;100.00
64616;BME280;51027;42.162;24.754;2022-08-21T01:06:04;99046.69;;;21.03;100.00
64616;BME280;51027;42.162;24.754;2022-08-21T01:08:30;99049.81;;;21.08;100.00
64616;BME280;51027;42.162;24.754;2022-08-21T01:10:56;99037.13;;;21.00;100.00
64616;BME280;51027;42.162;24.754;2022-08-21T01:13:26;99039.25;;;20.97;100.00
64616;BME280;51027;42.162;24.754;2022-08-21T01:15:56;99034.59;;;21.09;100.00
64616;BME280;51027;42.162;24.754;2022-08-21T01:18:25;99016.69;;;21.09;100.00
64616;BME280;51027;42.162;24.754;2022-08-21T01:21:12;98952.63;;;20.79;100.00
64616;BME280;51027;42.162;24.754;2022-08-21T01:23:45;99019.50;;;21.08;100.00
64616;BME280;51027;42.162;24.754;2022-08-21T01:26:16;99004.69;;;21.13;100.00
64616;BME280;51027;42.162;24.754;2022-08-21T01:28:54;99006.53;;;20.93;100.00
64616;BME280;51027;42.162;24.754;2022-08-21T01:31:22;98997.66;;;21.03;100.00
64616;BME280;51027;42.162;24.754;2022-08-21T01:33:48;99001.47;;;21.10;100.00
64616;BME280;51027;42.162;24.754;2022-08-21T01:36:14;98991.31;;;21.04;100.00
64616;BME280;51027;42.162;24.754;2022-08-21T01:38:39;98991.03;;;21.07;100.00
64616;BME280;51027;42.162;24.754;2022-08-21T01:41:05;98977.53;;;20.89;100.00
64616;BME280;51027;42.162;24.754;2022-08-21T01:43:30;99006.69;;;21.02;100.00
64616;BME280;51027;42.162;24.754;2022-08-21T01:45:56;98994.00;;;20.94;100.00
64616;BME280;51027;42.162;24.754;2022-08-21T01:48:22;99005.13;;;20.99;100.00
64616;BME280;51027;42.162;24.754;2022-08-21T01:50:47;99008.38;;;20.93;100.00
64616;BME280;51027;42.162;24.754;2022-08-21T01:53:13;99020.06;;;20.92;100.00
64616;BME280;51027;42.162;24.754;2022-08-21T01:55:41;99018.69;;;20.78;100.00
64616;BME280;51027;42.162;24.754;2022-08-21T01:58:06;99034.03;;;20.76;100.00
64616;BME280;51027;42.162;24.754;2022-08-21T02:00:33;99052.78;;;20.66;100.00
64616;BME280;51027;42.162;24.754;2022-08-21T02:02:59;99078.00;;;20.64;100.00
64616;BME280;51027;42.162;24.754;2022-08-21T02:05:24;99093.75;;;20.67;100.00
64616;BME280;51027;42.162;24.754;2022-08-21T02:07:52;99100.78;;;20.68;100.00
64616;BME280;51027;42.162;24.754;2022-08-21T02:10:23;99097.69;;;20.73;100.00
64616;BME280;51027;42.162;24.754;2022-08-21T02:12:51;99072.34;;;20.67;100.00
64616;BME280;51027;42.162;24.754;2022-08-21T02:15:17;99079.41;;;20.87;100.00
64616;BME280;51027;42.162;24.754;2022-08-21T02:17:50;99080.09;;;20.89;100.00
64616;BME280;51027;42.162;24.754;2022-08-21T02:20:20;99078.13;;;20.91;100.00
64616;BME280;51027;42.162;24.754;2022-08-21T02:22:46;99076.16;;;20.84;100.00
64616;BME280;51027;42.162;24.754;2022-08-21T02:25:12;99057.69;;;20.71;100.00
64616;BME280;51027;42.162;24.754;2022-08-21T02:27:44;99087.72;;;20.84;100.00
64616;BME280;51027;42.162;24.754;2022-08-21T02:30:16;99095.31;;;20.89;100.00
64616;BME280;51027;42.162;24.754;2022-08-21T02:32:42;99098.84;;;20.89;100.00
64616;BME280;51027;42.162;24.754;2022-08-21T02:35:10;99102.81;;;20.95;100.00
64616;BME280;51027;42.162;24.754;2022-08-21T02:37:54;99104.50;;;20.86;100.00
64616;BME280;51027;42.162;24.754;2022-08-21T02:40:23;99105.47;;;20.85;100.00
64616;BME280;51027;42.162;24.754;2022-08-21T02:42:49;99110.25;;;20.82;100.00
64616;BME280;51027;42.162;24.754;2022-08-21T02:45:16;99114.47;;;20.94;100.00
64616;BME280;51027;42.162;24.754;2022-08-21T02:47:54;99106.59;;;20.92;100.00
64616;BME280;51027;42.162;24.754;2022-08-21T02:50:24;99118.97;;;20.93;100.00
64616;BME280;51027;42.162;24.754;2022-08-21T02:52:50;99114.06;;;20.98;100.00
64616;BME280;51027;42.162;24.754;2022-08-21T02:55:19;99116.06;;;20.96;100.00
64616;BME280;51027;42.162;24.754;2022-08-21T02:57:46;99107.44;;;20.93;100.00
64616;BME280;51027;42.162;24.754;2022-08-21T03:00:14;99107.03;;;20.97;100.00
64616;BME280;51027;42.162;24.754;2022-08-21T03:02:40;99088.28;;;20.88;100.00
64616;BME280;51027;42.162;24.754;2022-08-21T03:05:08;99099.41;;;20.93;100.00
64616;BME280;51027;42.162;24.754;2022-08-21T03:07:36;99100.69;;;20.98;100.00
64616;BME280;51027;42.162;24.754;2022-08-21T03:10:02;99100.53;;;20.90;100.00
64616;BME280;51027;42.162;24.754;2022-08-21T03:12:27;99094.78;;;20.95;100.00
64616;BME280;51027;42.162;24.754;2022-08-21T03:14:53;99096.88;;;20.91;100.00
64616;BME280;51027;42.162;24.754;2022-08-21T03:17:19;99105.34;;;20.87;100.00
64616;BME280;51027;42.162;24.754;2022-08-21T03:19:44;99111.94;;;20.83;100.00
64616;BME280;51027;42.162;24.754;2022-08-21T03:22:10;99119.72;;;20.86;100.00
64616;BME280;51027;42.162;24.754;2022-08-21T03:24:35;99109.00;;;20.76;100.00
64616;BME280;51027;42.162;24.754;2022-08-21T03:27:01;99105.88;;;20.71;100.00
64616;BME280;51027;42.162;24.754;2022-08-21T03:29:27;99107.28;;;20.75;100.00
64616;BME280;51027;42.162;24.754;2022-08-21T03:31:53;99107.16;;;20.77;100.00
64616;BME280;51027;42.162;24.754;2022-08-21T03:34:20;99104.91;;;20.91;100.00
64616;BME280;51027;42.162;24.754;2022-08-21T03:36:47;99105.03;;;20.80;100.00
64616;BME280;51027;42.162;24.754;2022-08-21T03:39:14;99108.84;;;20.78;100.00
64616;BME280;51027;42.162;24.754;2022-08-21T03:41:40;99103.50;;;20.78;100.00
64616;BME280;51027;42.162;24.754;2022-08-21T03:44:06;99112.91;;;20.82;100.00
64616;BME280;51027;42.162;24.754;2022-08-21T03:46:32;99110.09;;;20.93;100.00
64616;BME280;51027;42.162;24.754;2022-08-21T03:48:58;99116.59;;;20.90;100.00
64616;BME280;51027;42.162;24.754;2022-08-21T03:51:24;99120.25;;;20.89;100.00
64616;BME280;51027;42.162;24.754;2022-08-21T03:53:49;99117.03;;;20.86;100.00
64616;BME280;51027;42.162;24.754;2022-08-21T03:56:15;99116.03;;;20.77;100.00
64616;BME280;51027;42.162;24.754;2022-08-21T03:58:41;99125.19;;;20.75;100.00
64616;BME280;51027;42.162;24.754;2022-08-21T04:01:10;99108.00;;;20.77;100.00
64616;BME280;51027;42.162;24.754;2022-08-21T04:03:37;99119.81;;;20.65;100.00
64616;BME280;51027;42.162;24.754;2022-08-21T04:06:04;99132.38;;;20.74;100.00
64616;BME280;51027;42.162;24.754;2022-08-21T04:08:30;99119.13;;;20.82;100.00
64616;BME280;51027;42.162;24.754;2022-08-21T04:10:57;99127.28;;;20.81;100.00
64616;BME280;51027;42.162;24.754;2022-08-21T04:13:24;99130.13;;;20.79;100.00
64616;BME280;51027;42.162;24.754;2022-08-21T04:15:51;99135.03;;;20.84;100.00
64616;BME280;51027;42.162;24.754;2022-08-21T04:18:17;99128.72;;;20.94;100.00
64616;BME280;51027;42.162;24.754;2022-08-21T04:20:45;99134.06;;;20.94;100.00
64616;BME280;51027;42.162;24.754;2022-08-21T04:23:11;99134.19;;;20.83;100.00
64616;BME280;51027;42.162;24.754;2022-08-21T04:25:37;99118.72;;;20.77;100.00
64616;BME280;51027;42.162;24.754;2022-08-21T04:28:03;99127.59;;;20.78;100.00
64616;BME280;51027;42.162;24.754;2022-08-21T04:30:29;99134.34;;;20.82;100.00
64616;BME280;51027;42.162;24.754;2022-08-21T04:32:56;99128.13;;;20.81;100.00
64616;BME280;51027;42.162;24.754;2022-08-21T04:35:22;99127.88;;;20.84;100.00
64616;BME280;51027;42.162;24.754;2022-08-21T04:37:49;99124.22;;;20.85;100.00
64616;BME280;51027;42.162;24.754;2022-08-21T04:40:16;99111.22;;;20.81;100.00
64616;BME280;51027;42.162;24.754;2022-08-21T04:42:50;99114.59;;;20.73;100.00
64616;BME280;51027;42.162;24.754;2022-08-21T04:45:20;99101.34;;;20.71;100.00
64616;BME280;51027;42.162;24.754;2022-08-21T04:47:48;99110.09;;;20.83;100.00
64616;BME280;51027;42.162;24.754;2022-08-21T04:50:14;99116.16;;;20.76;100.00
64616;BME280;51027;42.162;24.754;2022-08-21T04:52:40;99106.72;;;20.71;100.00
64616;BME280;51027;42.162;24.754;2022-08-21T04:55:06;99102.66;;;20.87;100.00
64616;BME280;51027;42.162;24.754;2022-08-21T04:57:33;99073.59;;;20.73;100.00
64616;BME280;51027;42.162;24.754;2022-08-21T05:00:00;99090.81;;;20.80;100.00
64616;BME280;51027;42.162;24.754;2022-08-21T05:02:25;99077.00;;;20.75;100.00
64616;BME280;51027;42.162;24.754;2022-08-21T05:04:53;99087.72;;;20.75;100.00
64616;BME280;51027;42.162;24.754;2022-08-21T05:07:22;99084.63;;;20.79;100.00
64616;BME280;51027;42.162;24.754;2022-08-21T05:09:49;99089.97;;;20.79;100.00
64616;BME280;51027;42.162;24.754;2022-08-21T05:12:14;99092.50;;;20.90;100.00
64616;BME280;51027;42.162;24.754;2022-08-21T05:14:40;99095.47;;;20.87;100.00
64616;BME280;51027;42.162;24.754;2022-08-21T05:17:08;99090.94;;;20.78;100.00
64616;BME280;51027;42.162;24.754;2022-08-21T05:19:34;99087.00;;;20.82;100.00
64616;BME280;51027;42.162;24.754;2022-08-21T05:22:00;99086.59;;;20.77;100.00
64616;BME280;51027;42.162;24.754;2022-08-21T05:24:26;99071.50;;;20.66;100.00
64616;BME280;51027;42.162;24.754;2022-08-21T05:26:52;99056.28;;;20.57;100.00
64616;BME280;51027;42.162;24.754;2022-08-21T05:29:18;99075.31;;;20.64;100.00
64616;BME280;51027;42.162;24.754;2022-08-21T05:31:45;99072.75;;;20.62;100.00
64616;BME280;51027;42.162;24.754;2022-08-21T05:34:18;99073.06;;;20.69;100.00
64616;BME280;51027;42.162;24.754;2022-08-21T05:36:44;99079.25;;;20.69;100.00
64616;BME280;51027;42.162;24.754;2022-08-21T05:39:30;99082.22;;;20.76;100.00
64616;BME280;51027;42.162;24.754;2022-08-21T05:41:56;99087.00;;;20.92;100.00
64616;BME280;51027;42.162;24.754;2022-08-21T05:44:21;99082.34;;;20.94;100.00
64616;BME280;51027;42.162;24.754;2022-08-21T05:46:47;99083.19;;;20.65;100.00
64616;BME280;51027;42.162;24.754;2022-08-21T05:49:12;99092.78;;;20.78;100.00
64616;BME280;51027;42.162;24.754;2022-08-21T05:51:40;99096.47;;;20.86;100.00
64616;BME280;51027;42.162;24.754;2022-08-21T05:54:05;99091.66;;;20.99;100.00
64616;BME280;51027;42.162;24.754;2022-08-21T05:56:32;99095.03;;;21.02;100.00
64616;BME280;51027;42.162;24.754;2022-08-21T05:58:57;99096.19;;;20.99;100.00
64616;BME280;51027;42.162;24.754;2022-08-21T06:01:23;99101.09;;;21.04;100.00
64616;BME280;51027;42.162;24.754;2022-08-21T06:03:48;99103.63;;;20.76;100.00
64616;BME280;51027;42.162;24.754;2022-08-21T06:06:14;99112.31;;;20.59;100.00
64616;BME280;51027;42.162;24.754;2022-08-21T06:08:39;99111.03;;;20.44;100.00
64616;BME280;51027;42.162;24.754;2022-08-21T06:11:05;99111.19;;;20.61;100.00
64616;BME280;51027;42.162;24.754;2022-08-21T06:13:32;99112.38;;;20.78;100.00
64616;BME280;51027;42.162;24.754;2022-08-21T06:16:10;99113.22;;;20.79;100.00
64616;BME280;51027;42.162;24.754;2022-08-21T06:18:37;99117.16;;;20.75;100.00
64616;BME280;51027;42.162;24.754;2022-08-21T06:21:04;99106.00;;;20.69;100.00
64616;BME280;51027;42.162;24.754;2022-08-21T06:23:29;99122.09;;;20.89;100.00
64616;BME280;51027;42.162;24.754;2022-08-21T06:25:55;99125.63;;;20.99;100.00
64616;BME280;51027;42.162;24.754;2022-08-21T06:28:21;99113.75;;;20.82;100.00
64616;BME280;51027;42.162;24.754;2022-08-21T06:30:47;99110.94;;;20.93;100.00
64616;BME280;51027;42.162;24.754;2022-08-21T06:33:12;99112.53;;;20.96;100.00
64616;BME280;51027;42.162;24.754;2022-08-21T06:35:38;99107.44;;;20.93;100.00
64616;BME280;51027;42.162;24.754;2022-08-21T06:38:03;99112.25;;;21.09;100.00
64616;BME280;51027;42.162;24.754;2022-08-21T06:40:29;99115.06;;;21.17;100.00
64616;BME280;51027;42.162;24.754;2022-08-21T06:42:56;99100.84;;;21.07;100.00
64616;BME280;51027;42.162;24.754;2022-08-21T06:45:23;99102.78;;;21.14;100.00
64616;BME280;51027;42.162;24.754;2022-08-21T06:47:48;99103.91;;;21.21;100.00
64616;BME280;51027;42.162;24.754;2022-08-21T06:50:14;99107.44;;;21.12;100.00
64616;BME280;51027;42.162;24.754;2022-08-21T06:52:40;99088.69;;;21.12;100.00
64616;BME280;51027;42.162;24.754;2022-08-21T06:55:07;99083.63;;;21.19;100.00
64616;BME280;51027;42.162;24.754;2022-08-21T06:57:34;99092.22;;;21.32;100.00
64616;BME280;51027;42.162;24.754;2022-08-21T06:59:59;99080.13;;;21.28;100.00
64616;BME280;51027;42.162;24.754;2022-08-21T07:02:25;99085.47;;;21.28;100.00
64616;BME280;51027;42.162;24.754;2022-08-21T07:04:50;99063.22;;;21.27;100.00
64616;BME280;51027;42.162;24.754;2022-08-21T07:07:16;99086.88;;;21.42;100.00
64616;BME280;51027;42.162;24.754;2022-08-21T07:09:42;99085.00;;;21.62;100.00
64616;BME280;51027;42.162;24.754;2022-08-21T07:12:08;99076.16;;;21.42;100.00
64616;BME280;51027;42.162;24.754;2022-08-21T07:14:33;99079.97;;;21.10;100.00
64616;BME280;51027;42.162;24.754;2022-08-21T07:16:59;99081.81;;;21.29;100.00
64616;BME280;51027;42.162;24.754;2022-08-21T07:19:24;99088.69;;;21.51;100.00
64616;BME280;51027;42.162;24.754;2022-08-21T07:21:50;99086.16;;;21.49;100.00
64616;BME280;51027;42.162;24.754;2022-08-21T07:24:16;99088.13;;;21.57;100.00
64616;BME280;51027;42.162;24.754;2022-08-21T07:26:41;99086.13;;;21.59;100.00
64616;BME280;51027;42.162;24.754;2022-08-21T07:29:07;99088.22;;;21.55;100.00
64616;BME280;51027;42.162;24.754;2022-08-21T07:31:32;99081.88;;;21.66;100.00
64616;BME280;51027;42.162;24.754;2022-08-21T07:33:58;99078.34;;;21.66;100.00
64616;BME280;51027;42.162;24.754;2022-08-21T07:36:23;99067.22;;;21.61;100.00
64616;BME280;51027;42.162;24.754;2022-08-21T07:38:49;99071.97;;;21.76;100.00
64616;BME280;51027;42.162;24.754;2022-08-21T07:41:18;99066.50;;;21.68;100.00
64616;BME280;51027;42.162;24.754;2022-08-21T07:43:44;99069.19;;;21.68;100.00
64616;BME280;51027;42.162;24.754;2022-08-21T07:46:10;99071.72;;;21.70;100.00
64616;BME280;51027;42.162;24.754;2022-08-21T07:48:36;99055.38;;;21.53;100.00
64616;BME280;51027;42.162;24.754;2022-08-21T07:51:07;99068.53;;;21.84;100.00
64616;BME280;51027;42.162;24.754;2022-08-21T07:53:34;99052.88;;;21.89;100.00
64616;BME280;51027;42.162;24.754;2022-08-21T07:55:59;99067.91;;;22.09;100.00
64616;BME280;51027;42.162;24.754;2022-08-21T07:58:25;99053.94;;;21.96;100.00
64616;BME280;51027;42.162;24.754;2022-08-21T08:00:50;99081.03;;;22.12;100.00
64616;BME280;51027;42.162;24.754;2022-08-21T08:03:16;99080.78;;;21.96;100.00
64616;BME280;51027;42.162;24.754;2022-08-21T08:05:41;99083.84;;;21.64;100.00
64616;BME280;51027;42.162;24.754;2022-08-21T08:08:07;99087.94;;;21.68;100.00
64616;BME280;51027;42.162;24.754;2022-08-21T08:10:33;99078.75;;;21.71;100.00
64616;BME280;51027;42.162;24.754;2022-08-21T08:12:58;99075.09;;;21.62;100.00
64616;BME280;51027;42.162;24.754;2022-08-21T08:15:25;99072.03;;;21.57;100.00
64616;BME280;51027;42.162;24.754;2022-08-21T08:17:51;99067.50;;;21.67;100.00
64616;BME280;51027;42.162;24.754;2022-08-21T08:20:18;99065.44;;;21.89;100.00
64616;BME280;51027;42.162;24.754;2022-08-21T08:22:45;99064.16;;;21.46;100.00
64616;BME280;51027;42.162;24.754;2022-08-21T08:25:12;99063.88;;;21.49;100.00
64616;BME280;51027;42.162;24.754;2022-08-21T08:27:39;99064.09;;;21.65;100.00
64616;BME280;51027;42.162;24.754;2022-08-21T08:30:06;99063.34;;;21.82;100.00
64616;BME280;51027;42.162;24.754;2022-08-21T08:32:32;99071.25;;;21.74;99.44
64616;BME280;51027;42.162;24.754;2022-08-21T08:34:58;99048.03;;;21.55;99.15
64616;BME280;51027;42.162;24.754;2022-08-21T08:37:24;99050.94;;;21.81;98.85
64616;BME280;51027;42.162;24.754;2022-08-21T08:39:50;99058.66;;;21.84;98.65
64616;BME280;51027;42.162;24.754;2022-08-21T08:42:22;99047.78;;;21.49;99.05
64616;BME280;51027;42.162;24.754;2022-08-21T08:44:56;99047.50;;;21.42;100.00
64616;BME280;51027;42.162;24.754;2022-08-21T08:47:24;99051.16;;;21.51;100.00
64616;BME280;51027;42.162;24.754;2022-08-21T08:50:11;99045.94;;;21.59;98.23
64616;BME280;51027;42.162;24.754;2022-08-21T08:52:48;99046.94;;;21.58;98.72
64616;BME280;51027;42.162;24.754;2022-08-21T08:55:21;99038.66;;;21.79;97.89
64616;BME280;51027;42.162;24.754;2022-08-21T08:57:49;99038.09;;;21.75;97.96
64616;BME280;51027;42.162;24.754;2022-08-21T09:00:18;99043.78;;;22.00;97.58
64616;BME280;51027;42.162;24.754;2022-08-21T09:02:45;99028.09;;;22.05;98.02
64616;BME280;51027;42.162;24.754;2022-08-21T09:05:29;99027.63;;;21.82;95.91
64616;BME280;51027;42.162;24.754;2022-08-21T09:13:49;99036.06;;;21.97;96.08
64616;BME280;51027;42.162;24.754;2022-08-21T09:18:54;99032.38;;;22.07;96.50
64616;BME280;51027;42.162;24.754;2022-08-21T09:21:46;99008.47;;;22.04;96.44
64616;BME280;51027;42.162;24.754;2022-08-21T09:24:29;99017.91;;;22.36;96.42
64616;BME280;51027;42.162;24.754;2022-08-21T09:27:04;98998.44;;;22.34;96.63
64616;BME280;51027;42.162;24.754;2022-08-21T09:29:35;99005.44;;;22.62;95.22
64616;BME280;51027;42.162;24.754;2022-08-21T09:32:06;99009.66;;;22.65;94.86
64616;BME280;51027;42.162;24.754;2022-08-21T09:34:34;99006.97;;;22.65;93.03
64616;BME280;51027;42.162;24.754;2022-08-21T09:37:00;98984.88;;;22.71;92.34
64616;BME280;51027;42.162;24.754;2022-08-21T09:39:32;99000.22;;;22.79;93.79
64616;BME280;51027;42.162;24.754;2022-08-21T09:42:05;98997.38;;;22.62;92.39
64616;BME280;51027;42.162;24.754;2022-08-21T09:44:33;98965.69;;;22.66;92.22
64616;BME280;51027;42.162;24.754;2022-08-21T09:47:01;98967.53;;;22.83;91.92
64616;BME280;51027;42.162;24.754;2022-08-21T09:49:31;98990.78;;;23.10;92.73
64616;BME280;51027;42.162;24.754;2022-08-21T09:51:58;98999.03;;;23.17;91.63
64616;BME280;51027;42.162;24.754;2022-08-21T09:54:37;99003.09;;;23.21;91.89
64616;BME280;51027;42.162;24.754;2022-08-21T10:00:27;99001.72;;;23.17;88.65
64616;BME280;51027;42.162;24.754;2022-08-21T10:05:34;99005.66;;;23.05;90.03
64616;BME280;51027;42.162;24.754;2022-08-21T10:08:00;99007.44;;;22.96;92.48
64616;BME280;51027;42.162;24.754;2022-08-21T10:10:29;98970.06;;;22.67;92.90
64616;BME280;51027;42.162;24.754;2022-08-21T10:15:57;99010.72;;;23.08;91.72
64616;BME280;51027;42.162;24.754;2022-08-21T10:32:34;98987.66;;;22.61;95.74
64616;BME280;51027;42.162;24.754;2022-08-21T10:35:23;99002.50;;;22.74;95.06
64616;BME280;51027;42.162;24.754;2022-08-21T10:40:27;98996.09;;;22.49;94.83
64616;BME280;51027;42.162;24.754;2022-08-21T10:45:49;99012.41;;;22.73;94.06
64616;BME280;51027;42.162;24.754;2022-08-21T10:48:36;99007.53;;;22.86;93.96
64616;BME280;51027;42.162;24.754;2022-08-21T10:56:13;99020.47;;;22.55;94.54
64616;BME280;51027;42.162;24.754;2022-08-21T10:58:45;99011.34;;;22.66;95.79
64616;BME280;51027;42.162;24.754;2022-08-21T11:01:26;99022.31;;;22.09;98.68
64616;BME280;51027;42.162;24.754;2022-08-21T11:04:11;99001.50;;;22.21;99.70
64616;BME280;51027;42.162;24.754;2022-08-21T11:06:41;98998.13;;;22.37;99.76
64616;BME280;51027;42.162;24.754;2022-08-21T11:09:15;99010.69;;;22.36;99.80
64616;BME280;51027;42.162;24.754;2022-08-21T11:17:09;99008.94;;;22.45;98.49
64616;BME280;51027;42.162;24.754;2022-08-21T11:19:42;99008.44;;;22.59;98.07
64616;BME280;51027;42.162;24.754;2022-08-21T11:22:24;98999.59;;;22.67;97.42
64616;BME280;51027;42.162;24.754;2022-08-21T11:25:25;98999.75;;;22.65;97.08
64616;BME280;51027;42.162;24.754;2022-08-21T11:27:56;98998.00;;;22.38;97.01
64616;BME280;51027;42.162;24.754;2022-08-21T11:30:28;98993.03;;;22.61;96.91
64616;BME280;51027;42.162;24.754;2022-08-21T11:35:40;98998.63;;;22.86;94.50
64616;BME280;51027;42.162;24.754;2022-08-21T11:43:44;98996.78;;;22.68;92.31
64616;BME280;51027;42.162;24.754;2022-08-21T11:57:10;98985.50;;;23.01;90.40
64616;BME280;51027;42.162;24.754;2022-08-21T11:59:59;98985.53;;;23.09;91.07
64616;BME280;51027;42.162;24.754;2022-08-21T12:02:30;98978.03;;;23.12;91.92
64616;BME280;51027;42.162;24.754;2022-08-21T12:05:06;98979.13;;;23.27;90.94
64616;BME280;51027;42.162;24.754;2022-08-21T12:07:40;98980.59;;;23.22;90.08
64616;BME280;51027;42.162;24.754;2022-08-21T12:10:10;98965.41;;;22.69;91.98
64616;BME280;51027;42.162;24.754;2022-08-21T12:12:40;98972.47;;;22.70;92.02
64616;BME280;51027;42.162;24.754;2022-08-21T12:18:21;98958.09;;;22.97;91.67
64616;BME280;51027;42.162;24.754;2022-08-21T12:21:01;98956.47;;;23.04;91.28
64616;BME280;51027;42.162;24.754;2022-08-21T12:23:33;98956.03;;;22.91;92.26
64616;BME280;51027;42.162;24.754;2022-08-21T12:28:28;98945.59;;;22.88;94.69
64616;BME280;51027;42.162;24.754;2022-08-21T12:30:55;98948.91;;;22.82;92.25
64616;BME280;51027;42.162;24.754;2022-08-21T12:33:34;98950.69;;;22.91;91.51
64616;BME280;51027;42.162;24.754;2022-08-21T12:36:07;98950.75;;;22.99;90.80
64616;BME280;51027;42.162;24.754;2022-08-21T12:38:49;98944.38;;;22.82;91.62
64616;BME280;51027;42.162;24.754;2022-08-21T12:41:20;98936.72;;;22.69;92.28
64616;BME280;51027;42.162;24.754;2022-08-21T12:44:13;98933.22;;;22.95;91.93
64616;BME280;51027;42.162;24.754;2022-08-21T12:46:42;98938.88;;;23.10;90.78
64616;BME280;51027;42.162;24.754;2022-08-21T12:51:56;98935.38;;;23.09;90.77
64616;BME280;51027;42.162;24.754;2022-08-21T12:54:38;98934.81;;;23.06;91.39
64616;BME280;51027;42.162;24.754;2022-08-21T12:57:05;98922.69;;;23.27;89.86
64616;BME280;51027;42.162;24.754;2022-08-21T12:59:37;98917.41;;;23.44;89.69
64616;BME280;51027;42.162;24.754;2022-08-21T13:02:05;98916.56;;;23.77;88.51
64616;BME280;51027;42.162;24.754;2022-08-21T13:04:40;98913.50;;;23.64;88.79
64616;BME280;51027;42.162;24.754;2022-08-21T13:07:09;98918.06;;;23.80;88.43
64616;BME280;51027;42.162;24.754;2022-08-21T13:09:44;98918.09;;;23.88;87.67
64616;BME280;51027;42.162;24.754;2022-08-21T13:12:12;98919.47;;;24.00;86.65
64616;BME280;51027;42.162;24.754;2022-08-21T13:14:40;98920.03;;;24.12;86.30
64616;BME280;51027;42.162;24.754;2022-08-21T13:17:07;98919.13;;;23.95;87.53
64616;BME280;51027;42.162;24.754;2022-08-21T13:19:33;98921.31;;;24.00;86.73
64616;BME280;51027;42.162;24.754;2022-08-21T13:22:00;98914.94;;;24.09;86.23
64616;BME280;51027;42.162;24.754;2022-08-21T13:24:29;98918.84;;;24.14;86.75
64616;BME280;51027;42.162;24.754;2022-08-21T13:26:55;98907.88;;;24.00;86.30
64616;BME280;51027;42.162;24.754;2022-08-21T13:29:23;98917.34;;;24.28;85.69
64616;BME280;51027;42.162;24.754;2022-08-21T13:31:55;98910.31;;;24.35;86.98
64616;BME280;51027;42.162;24.754;2022-08-21T13:34:23;98913.00;;;24.35;85.98
64616;BME280;51027;42.162;24.754;2022-08-21T13:36:52;98906.94;;;24.41;85.90
64616;BME280;51027;42.162;24.754;2022-08-21T13:39:20;98914.31;;;24.15;86.77
64616;BME280;51027;42.162;24.754;2022-08-21T13:41:49;98914.41;;;23.81;88.33
64616;BME280;51027;42.162;24.754;2022-08-21T13:46:41;98917.81;;;24.07;87.25
64616;BME280;51027;42.162;24.754;2022-08-21T13:49:07;98912.94;;;24.03;85.63
64616;BME280;51027;42.162;24.754;2022-08-21T13:51:34;98911.09;;;24.03;85.92
64616;BME280;51027;42.162;24.754;2022-08-21T13:54:01;98904.69;;;24.04;85.51
64616;BME280;51027;42.162;24.754;2022-08-21T13:56:32;98911.78;;;24.13;85.06
64616;BME280;51027;42.162;24.754;2022-08-21T13:59:00;98899.81;;;24.08;85.86
64616;BME280;51027;42.162;24.754;2022-08-21T14:01:38;98904.22;;;24.17;84.94
64616;BME280;51027;42.162;24.754;2022-08-21T14:04:19;98908.81;;;24.65;82.80
64616;BME280;51027;42.162;24.754;2022-08-21T14:06:45;98912.50;;;24.97;80.37
64616;BME280;51027;42.162;24.754;2022-08-21T14:09:13;98907.03;;;25.30;79.82